createdAt,value
2022-09-12T00:02:07.495Z,3.38
2022-09-12T00:04:34.150Z,3.63
2022-09-12T00:07:00.801Z,3.65
2022-09-12T00:09:27.503Z,3.03
2022-09-12T00:11:54.265Z,3.22
2022-09-12T00:14:20.929Z,3.70
2022-09-12T00:16:47.688Z,3.53
2022-09-12T00:19:14.523Z,3.33
2022-09-12T00:21:42.145Z,3.90
2022-09-12T00:24:10.545Z,3.80
2022-09-12T00:26:37.262Z,3.80
2022-09-12T00:29:04.466Z,3.60
2022-09-12T00:31:31.476Z,3.60
2022-09-12T00:34:00.825Z,3.72
2022-09-12T00:36:29.284Z,3.50
2022-09-12T00:38:56.397Z,3.78
2022-09-12T00:41:34.826Z,4.00
2022-09-12T00:44:21.021Z,3.78
2022-09-12T00:46:53.999Z,3.85
2022-09-12T00:50:10.911Z,3.28
2022-09-12T00:52:42.325Z,3.30
2022-09-12T00:55:49.416Z,3.88
2022-09-12T00:58:28.076Z,3.50
2022-09-12T01:00:55.494Z,3.22
2022-09-12T01:03:24.228Z,3.53
2022-09-12T01:05:57.180Z,3.97
2022-09-12T01:08:25.898Z,4.00
2022-09-12T01:10:52.786Z,4.13
2022-09-12T01:13:19.799Z,3.92
2022-09-12T01:15:46.611Z,4.28
2022-09-12T01:18:23.151Z,4.47
2022-09-12T01:21:07.867Z,4.10
2022-09-12T01:23:52.544Z,3.97
2022-09-12T01:26:46.486Z,3.70
2022-09-12T01:29:37.366Z,3.92
2022-09-12T01:32:25.566Z,4.15
2022-09-12T01:35:05.810Z,4.78
2022-09-12T01:38:10.309Z,4.85
2022-09-12T01:41:13.779Z,5.57
2022-09-12T01:44:52.175Z,4.88
2022-09-12T01:47:39.719Z,5.18
2022-09-12T01:50:33.804Z,4.70
2022-09-12T01:53:24.586Z,5.05
2022-09-12T01:56:22.325Z,5.15
2022-09-12T01:59:17.227Z,5.22
2022-09-12T02:02:03.415Z,4.75
2022-09-12T02:04:53.498Z,5.43
2022-09-12T02:07:27.370Z,4.78
2022-09-12T02:10:29.172Z,4.00
2022-09-12T02:13:03.169Z,4.82
2022-09-12T02:15:43.177Z,4.63
2022-09-12T02:18:14.515Z,4.30
2022-09-12T02:20:48.244Z,5.13
2022-09-12T02:23:23.427Z,4.60
2022-09-12T02:26:03.392Z,4.88
2022-09-12T02:28:35.926Z,4.90
2022-09-12T02:31:33.644Z,4.10
2022-09-12T02:34:33.142Z,3.92
2022-09-12T02:37:26.169Z,4.20
2022-09-12T02:39:57.398Z,5.38
2022-09-12T02:42:25.219Z,5.10
2022-09-12T02:44:54.931Z,4.28
2022-09-12T02:47:44.128Z,4.82
2022-09-12T02:50:11.124Z,4.78
2022-09-12T02:52:38.665Z,5.20
2022-09-12T02:55:06.607Z,5.32
2022-09-12T02:57:33.679Z,5.55
2022-09-12T03:00:02.069Z,5.38
2022-09-12T03:03:03.549Z,5.15
2022-09-12T03:05:47.187Z,5.75
2022-09-12T03:08:43.327Z,5.43
2022-09-12T03:11:40.912Z,5.03
2022-09-12T03:14:41.581Z,4.93
2022-09-12T03:17:42.861Z,4.97
2022-09-12T03:20:25.205Z,5.63
2022-09-12T03:23:02.924Z,4.80
2022-09-12T03:25:46.969Z,4.90
2022-09-12T03:28:16.546Z,5.20
2022-09-12T03:30:47.329Z,5.30
2022-09-12T03:33:17.881Z,5.65
2022-09-12T03:35:46.308Z,5.68
2022-09-12T03:38:13.479Z,4.90
2022-09-12T03:40:40.170Z,5.28
2022-09-12T03:43:09.141Z,4.57
2022-09-12T03:45:37.371Z,5.00
2022-09-12T03:48:06.215Z,4.68
2022-09-12T03:50:33.787Z,4.53
2022-09-12T03:53:00.558Z,4.90
2022-09-12T03:55:27.461Z,4.68
2022-09-12T03:57:54.905Z,4.63
2022-09-12T04:00:21.904Z,4.50
2022-09-12T04:02:48.714Z,4.43
2022-09-12T04:05:15.721Z,4.90
2022-09-12T04:07:42.383Z,4.63
2022-09-12T04:10:09.754Z,4.97
2022-09-12T04:12:36.618Z,4.28
2022-09-12T04:15:03.703Z,4.60
2022-09-12T04:17:30.313Z,4.60
2022-09-12T04:19:56.942Z,4.78
2022-09-12T04:22:23.809Z,4.55
2022-09-12T04:24:50.514Z,5.32
2022-09-12T04:27:17.146Z,4.68
2022-09-12T04:29:43.796Z,5.93
2022-09-12T04:32:10.650Z,5.28
2022-09-12T04:34:37.682Z,5.93
2022-09-12T04:37:04.606Z,5.18
2022-09-12T04:39:31.260Z,4.82
2022-09-12T04:41:57.880Z,5.05
2022-09-12T04:44:24.589Z,5.65
2022-09-12T04:46:51.469Z,5.03
2022-09-12T04:49:19.303Z,5.78
2022-09-12T04:51:46.660Z,5.40
2022-09-12T04:54:19.604Z,5.82
2022-09-12T04:56:49.410Z,5.50
2022-09-12T04:59:18.271Z,5.70
2022-09-12T05:01:45.071Z,4.88
2022-09-12T05:04:13.248Z,4.88
2022-09-12T05:06:41.615Z,5.72
2022-09-12T05:09:12.251Z,6.80
2022-09-12T05:14:29.797Z,5.35
2022-09-12T05:16:59.943Z,4.78
2022-09-12T05:19:28.231Z,5.18
2022-09-12T05:21:54.837Z,4.25
2022-09-12T05:24:21.649Z,4.25
2022-09-12T05:26:48.314Z,4.32
2022-09-12T05:29:14.998Z,4.43
2022-09-12T05:31:41.856Z,4.43
2022-09-12T05:34:10.038Z,4.85
2022-09-12T05:36:37.442Z,4.47
2022-09-12T05:39:04.855Z,4.45
2022-09-12T05:41:33.755Z,4.85
2022-09-12T05:44:04.519Z,5.10
2022-09-12T05:46:43.035Z,5.50
2022-09-12T05:49:13.163Z,6.35
2022-09-12T05:51:44.881Z,5.63
2022-09-12T05:54:15.426Z,6.32
2022-09-12T05:56:44.152Z,5.85
2022-09-12T05:59:20.773Z,6.35
2022-09-12T06:01:48.549Z,6.75
2022-09-12T06:04:15.895Z,6.65
2022-09-12T06:06:45.480Z,6.35
2022-09-12T06:09:15.142Z,6.70
2022-09-12T06:11:43.029Z,6.88
2022-09-12T06:14:12.164Z,5.47
2022-09-12T06:16:39.473Z,6.10
2022-09-12T06:19:19.334Z,5.93
2022-09-12T06:21:49.089Z,5.13
2022-09-12T06:24:17.645Z,4.32
2022-09-12T06:26:44.893Z,5.70
2022-09-12T06:29:12.179Z,6.25
2022-09-12T06:31:41.363Z,7.13
2022-09-12T06:34:12.240Z,6.90
2022-09-12T06:36:42.826Z,7.25
2022-09-12T06:39:19.138Z,8.38
2022-09-12T06:41:48.261Z,9.48
2022-09-12T06:44:21.647Z,10.13
2022-09-12T06:46:48.993Z,11.70
2022-09-12T06:49:15.813Z,11.48
2022-09-12T06:51:43.074Z,12.85
2022-09-12T06:54:12.947Z,12.30
2022-09-12T06:56:39.648Z,14.60
2022-09-12T06:59:06.762Z,15.93
2022-09-12T07:01:33.590Z,13.85
2022-09-12T07:04:03.052Z,11.18
2022-09-12T07:06:35.719Z,10.05
2022-09-12T07:09:05.785Z,10.95
2022-09-12T07:11:36.546Z,10.38
2022-09-12T07:14:06.486Z,10.43
2022-09-12T07:16:36.137Z,16.38
2022-09-12T07:19:04.781Z,16.25
2022-09-12T07:21:31.604Z,12.77
2022-09-12T07:23:58.774Z,14.27
2022-09-12T07:26:28.216Z,13.60
2022-09-12T07:29:08.299Z,12.60
2022-09-12T07:31:44.145Z,12.25
2022-09-12T07:34:11.152Z,12.65
2022-09-12T07:36:38.013Z,10.65
2022-09-12T07:39:04.733Z,10.10
2022-09-12T07:41:33.884Z,9.77
2022-09-12T07:44:02.990Z,8.30
2022-09-12T07:46:31.813Z,8.00
2022-09-12T07:49:00.851Z,5.03
2022-09-12T07:51:30.512Z,5.10
2022-09-12T07:53:58.312Z,3.80
2022-09-12T07:56:30.125Z,3.67
2022-09-12T07:58:58.853Z,4.35
2022-09-12T08:01:26.008Z,4.78
2022-09-12T08:03:59.100Z,6.18
2022-09-12T08:06:28.186Z,5.72
2022-09-12T08:08:57.432Z,5.70
2022-09-12T08:11:26.019Z,4.15
2022-09-12T08:13:56.135Z,3.75
2022-09-12T08:16:31.153Z,3.90
2022-09-12T08:18:59.767Z,3.90
2022-09-12T08:21:30.079Z,4.40
2022-09-12T08:24:03.936Z,3.95
2022-09-12T08:26:32.708Z,3.75
2022-09-12T08:29:00.279Z,3.25
2022-09-12T08:31:28.102Z,3.88
2022-09-12T08:33:58.601Z,3.08
2022-09-12T08:36:28.062Z,2.65
2022-09-12T08:39:00.798Z,2.65
2022-09-12T08:41:35.234Z,2.35
2022-09-12T08:44:22.726Z,2.08
2022-09-12T08:47:10.935Z,2.72
2022-09-12T08:50:10.801Z,1.95
2022-09-12T08:53:03.532Z,1.83
2022-09-12T08:55:53.444Z,1.70
2022-09-12T08:58:22.825Z,1.67
2022-09-12T09:01:12.151Z,2.05
2022-09-12T09:03:57.699Z,2.03
2022-09-12T09:06:59.222Z,1.83
2022-09-12T09:09:47.289Z,1.30
2022-09-12T09:12:54.644Z,1.38
2022-09-12T09:15:56.255Z,1.30
2022-09-12T09:18:33.421Z,1.20
2022-09-12T09:21:02.028Z,1.30
2022-09-12T09:23:42.715Z,0.90
2022-09-12T09:26:17.940Z,1.08
2022-09-12T09:28:54.013Z,0.90
2022-09-12T09:31:30.848Z,1.15
2022-09-12T09:33:57.525Z,1.00
2022-09-12T09:36:50.312Z,1.30
2022-09-12T09:39:36.679Z,1.23
2022-09-12T09:42:41.146Z,1.23
2022-09-12T09:45:19.505Z,2.10
2022-09-12T09:48:15.431Z,1.30
2022-09-12T09:50:42.920Z,1.25
2022-09-12T09:53:40.587Z,1.20
2022-09-12T09:56:27.065Z,1.10
2022-09-12T09:58:54.080Z,1.50
2022-09-12T10:01:21.144Z,1.38
2022-09-12T10:03:56.368Z,0.98
2022-09-12T10:06:34.244Z,1.13
2022-09-12T10:09:14.764Z,0.80
2022-09-12T10:11:45.695Z,0.60
2022-09-12T10:14:31.638Z,0.88
2022-09-12T10:16:59.503Z,1.00
2022-09-12T10:20:10.531Z,1.05
2022-09-12T10:22:39.559Z,1.42
2022-09-12T10:25:13.356Z,0.98
2022-09-12T10:27:42.192Z,1.30
2022-09-12T10:30:19.708Z,1.17
2022-09-12T10:32:53.058Z,1.02
2022-09-12T10:35:29.448Z,0.85
2022-09-12T10:38:02.385Z,1.00
2022-09-12T10:40:42.050Z,1.33
2022-09-12T10:43:33.496Z,0.90
2022-09-12T10:46:21.217Z,1.25
2022-09-12T10:48:51.502Z,1.17
2022-09-12T10:51:24.375Z,1.02
2022-09-12T10:53:54.320Z,1.15
2022-09-12T10:56:23.243Z,1.58
2022-09-12T10:59:16.853Z,1.00
2022-09-12T11:02:14.989Z,1.20
2022-09-12T11:05:08.038Z,0.93
2022-09-12T11:07:53.196Z,0.90
2022-09-12T11:10:57.145Z,1.42
2022-09-12T11:14:28.334Z,1.33
2022-09-12T11:17:30.079Z,1.23
2022-09-12T11:20:31.168Z,1.10
2022-09-12T11:23:13.625Z,1.10
2022-09-12T11:26:10.613Z,1.30
2022-09-12T11:29:05.619Z,1.15
2022-09-12T11:31:56.300Z,1.30
2022-09-12T11:35:07.002Z,1.42
2022-09-12T11:38:08.256Z,1.23
2022-09-12T11:41:15.448Z,1.40
2022-09-12T11:43:56.932Z,1.10
2022-09-12T11:46:39.535Z,1.70
2022-09-12T11:49:09.174Z,1.35
2022-09-12T11:52:03.784Z,1.00
2022-09-12T11:55:00.416Z,1.40
2022-09-12T11:57:47.980Z,1.15
2022-09-12T12:00:21.650Z,1.42
2022-09-12T12:02:57.659Z,1.30
2022-09-12T12:06:01.350Z,0.90
2022-09-12T12:08:31.940Z,0.80
2022-09-12T12:11:04.101Z,0.60
2022-09-12T12:13:33.727Z,0.80
2022-09-12T12:16:19.777Z,0.60
2022-09-12T12:18:53.508Z,0.35
2022-09-12T12:21:29.508Z,0.52
2022-09-12T12:24:08.148Z,0.60
2022-09-12T12:26:40.674Z,0.80
2022-09-12T12:29:32.858Z,0.77
2022-09-12T12:31:59.410Z,0.98
2022-09-12T12:34:44.384Z,0.85
2022-09-12T12:37:20.158Z,0.70
2022-09-12T12:39:53.910Z,0.50
2022-09-12T12:42:35.669Z,1.35
2022-09-12T12:45:08.408Z,1.33
2022-09-12T12:47:37.681Z,0.90
2022-09-12T12:50:16.226Z,1.83
2022-09-12T12:53:21.653Z,1.25
2022-09-12T12:55:52.504Z,1.05
2022-09-12T12:58:41.116Z,1.15
2022-09-12T13:01:21.176Z,1.23
2022-09-12T13:04:05.420Z,1.30
2022-09-12T13:06:41.000Z,1.20
2022-09-12T13:09:32.521Z,0.98
2022-09-12T13:12:09.879Z,1.52
2022-09-12T13:14:59.497Z,1.50
2022-09-12T13:17:38.161Z,1.38
2022-09-12T13:20:29.639Z,1.52
2022-09-12T13:22:57.681Z,1.48
2022-09-12T13:25:35.363Z,1.20
2022-09-12T13:28:11.325Z,1.17
2022-09-12T13:31:19.735Z,1.15
2022-09-12T13:33:59.853Z,0.88
2022-09-12T13:36:52.164Z,0.85
2022-09-12T13:39:28.377Z,1.00
2022-09-12T13:42:23.381Z,1.20
2022-09-12T13:45:12.481Z,0.90
2022-09-12T13:47:58.822Z,1.17
2022-09-12T13:50:51.675Z,1.00
2022-09-12T13:53:23.340Z,0.80
2022-09-12T13:55:59.575Z,0.85
2022-09-12T13:58:29.986Z,1.05
2022-09-12T14:01:16.098Z,1.23
2022-09-12T14:04:14.967Z,0.50
2022-09-12T14:06:53.423Z,1.10
2022-09-12T14:09:41.741Z,1.10
2022-09-12T14:12:23.223Z,1.45
2022-09-12T14:14:52.242Z,2.63
2022-09-12T14:17:29.792Z,2.50
2022-09-12T14:19:59.280Z,1.50
2022-09-12T14:22:27.897Z,1.08
2022-09-12T14:24:55.861Z,0.95
2022-09-12T14:27:37.273Z,1.02
2022-09-12T14:30:19.683Z,1.73
2022-09-12T14:33:12.696Z,1.20
2022-09-12T14:35:45.661Z,1.23
2022-09-12T14:38:15.077Z,1.05
2022-09-12T14:41:07.742Z,1.35
2022-09-12T14:43:38.797Z,1.30
2022-09-12T14:46:23.825Z,1.08
2022-09-12T14:49:12.714Z,1.27
2022-09-12T14:51:51.116Z,1.17
2022-09-12T14:54:44.531Z,1.10
2022-09-12T14:57:36.640Z,1.20
2022-09-12T15:00:14.213Z,1.00
2022-09-12T15:02:43.065Z,1.13
2022-09-12T15:05:12.352Z,0.90
2022-09-12T15:07:42.165Z,1.30
2022-09-12T15:10:36.754Z,1.10
2022-09-12T15:13:26.039Z,1.20
2022-09-12T15:15:54.329Z,1.50
2022-09-12T15:18:23.759Z,1.10
2022-09-12T15:21:00.840Z,1.80
2022-09-12T15:23:31.026Z,2.10
2022-09-12T15:25:57.735Z,1.02
2022-09-12T15:28:24.906Z,1.40
2022-09-12T15:30:55.651Z,1.10
2022-09-12T15:33:24.846Z,1.17
2022-09-12T15:35:52.994Z,1.40
2022-09-12T15:38:24.267Z,1.40
2022-09-12T15:40:53.955Z,1.45
2022-09-12T15:43:23.070Z,1.20
2022-09-12T15:45:51.714Z,1.33
2022-09-12T15:48:20.558Z,1.27
2022-09-12T15:50:47.384Z,1.52
2022-09-12T15:53:16.750Z,2.53
2022-09-12T15:55:43.877Z,2.03
2022-09-12T15:58:10.882Z,2.58
2022-09-12T16:00:37.730Z,2.08
2022-09-12T16:03:04.791Z,1.70
2022-09-12T16:05:32.249Z,1.42
2022-09-12T16:07:58.941Z,1.40
2022-09-12T16:10:29.952Z,1.10
2022-09-12T16:12:57.144Z,1.83
2022-09-12T16:15:26.172Z,1.58
2022-09-12T16:17:56.239Z,1.48
2022-09-12T16:20:23.561Z,1.80
2022-09-12T16:22:50.285Z,2.50
2022-09-12T16:25:17.424Z,2.38
2022-09-12T16:27:44.801Z,1.58
2022-09-12T16:30:11.936Z,2.05
2022-09-12T16:32:38.721Z,4.07
2022-09-12T16:35:06.497Z,1.88
2022-09-12T16:37:34.576Z,1.70
2022-09-12T16:40:03.432Z,1.38
2022-09-12T16:42:30.387Z,2.03
2022-09-12T16:44:57.074Z,1.88
2022-09-12T16:47:24.625Z,1.52
2022-09-12T16:49:51.378Z,1.70
2022-09-12T16:52:19.050Z,2.00
2022-09-12T16:54:45.836Z,1.90
2022-09-12T16:57:12.847Z,2.05
2022-09-12T16:59:39.587Z,2.47
2022-09-12T17:02:06.573Z,2.00
2022-09-12T17:04:33.236Z,2.25
2022-09-12T17:07:00.030Z,3.10
2022-09-12T17:09:28.159Z,2.83
2022-09-12T17:11:55.683Z,2.97
2022-09-12T17:14:22.923Z,3.00
2022-09-12T17:16:52.037Z,1.90
2022-09-12T17:19:29.721Z,2.40
2022-09-12T17:21:57.703Z,1.85
2022-09-12T17:24:24.360Z,2.10
2022-09-12T17:26:52.369Z,2.55
2022-09-12T17:29:19.501Z,2.53
2022-09-12T17:31:46.548Z,1.85
2022-09-12T17:34:17.509Z,2.35
2022-09-12T17:36:46.191Z,2.55
2022-09-12T17:39:14.299Z,2.78
2022-09-12T17:41:42.785Z,3.13
2022-09-12T17:44:12.482Z,3.00
2022-09-12T17:46:39.785Z,2.30
2022-09-12T17:49:11.830Z,2.22
2022-09-12T17:51:39.460Z,2.45
2022-09-12T17:54:11.812Z,2.35
2022-09-12T17:56:39.126Z,2.65
2022-09-12T17:59:08.715Z,2.03
2022-09-12T18:01:54.124Z,2.05
2022-09-12T18:04:20.898Z,2.42
2022-09-12T18:06:48.751Z,2.33
2022-09-12T18:09:21.967Z,2.30
2022-09-12T18:11:49.941Z,2.55
2022-09-12T18:14:17.699Z,2.42
2022-09-12T18:16:45.233Z,2.60
2022-09-12T18:19:12.178Z,2.88
2022-09-12T18:21:38.897Z,3.20
2022-09-12T18:24:06.410Z,3.50
2022-09-12T18:26:34.480Z,2.60
2022-09-12T18:29:01.184Z,2.65
2022-09-12T18:31:30.306Z,2.88
2022-09-12T18:33:59.775Z,2.80
2022-09-12T18:36:27.441Z,2.83
2022-09-12T18:38:54.954Z,3.03
2022-09-12T18:41:24.756Z,2.90
2022-09-12T18:43:59.994Z,2.80
2022-09-12T18:46:29.794Z,2.83
2022-09-12T18:48:57.915Z,2.97
2022-09-12T18:51:31.516Z,2.53
2022-09-12T18:54:11.204Z,2.55
2022-09-12T18:56:39.148Z,3.58
2022-09-12T18:59:07.193Z,2.80
2022-09-12T19:01:37.819Z,3.03
2022-09-12T19:04:07.508Z,3.88
2022-09-12T19:06:41.034Z,3.45
2022-09-12T19:09:09.583Z,2.90
2022-09-12T19:11:38.873Z,3.22
2022-09-12T19:14:06.616Z,3.75
2022-09-12T19:16:33.689Z,3.40
2022-09-12T19:19:00.589Z,6.20
2022-09-12T19:21:33.193Z,4.00
2022-09-12T19:24:06.927Z,3.17
2022-09-12T19:26:34.316Z,3.22
2022-09-12T19:29:02.814Z,3.42
2022-09-12T19:31:30.367Z,8.43
2022-09-12T19:34:05.780Z,5.00
2022-09-12T19:36:44.924Z,3.97
2022-09-12T19:39:11.929Z,3.58
2022-09-12T19:41:38.684Z,2.97
2022-09-12T19:44:05.611Z,3.35
2022-09-12T19:46:32.551Z,3.53
2022-09-12T19:48:59.355Z,3.38
2022-09-12T19:51:26.367Z,3.78
2022-09-12T19:53:53.388Z,3.15
2022-09-12T19:56:20.938Z,3.33
2022-09-12T19:58:55.032Z,3.17
2022-09-12T20:01:28.364Z,3.42
2022-09-12T20:03:56.354Z,3.10
2022-09-12T20:06:23.077Z,3.25
2022-09-12T20:08:50.054Z,3.85
2022-09-12T20:11:19.512Z,3.40
2022-09-12T20:13:46.871Z,2.72
2022-09-12T20:16:28.962Z,3.30
2022-09-12T20:19:06.898Z,2.90
2022-09-12T20:21:36.024Z,2.70
2022-09-12T20:24:16.036Z,2.90
2022-09-12T20:26:43.136Z,3.33
2022-09-12T20:29:10.498Z,2.90
2022-09-12T20:31:40.076Z,3.22
2022-09-12T20:34:07.403Z,2.90
2022-09-12T20:36:34.321Z,3.10
2022-09-12T20:39:02.451Z,3.30
2022-09-12T20:41:32.662Z,3.08
2022-09-12T20:43:59.978Z,3.20
2022-09-12T20:46:28.622Z,2.83
2022-09-12T20:48:55.443Z,3.13
2022-09-12T20:51:22.981Z,2.58
2022-09-12T20:53:54.842Z,2.53
2022-09-12T20:56:23.503Z,4.50
2022-09-12T20:58:50.734Z,4.55
2022-09-12T21:01:17.573Z,4.68
2022-09-12T21:03:44.740Z,4.15
2022-09-12T21:06:13.456Z,2.85
2022-09-12T21:08:40.599Z,2.97
2022-09-12T21:11:07.398Z,3.03
2022-09-12T21:13:34.514Z,2.85
2022-09-12T21:16:05.861Z,2.78
2022-09-12T21:18:33.583Z,2.72
2022-09-12T21:21:00.352Z,3.00
2022-09-12T21:23:28.925Z,2.53
2022-09-12T21:25:56.098Z,2.60
2022-09-12T21:28:22.758Z,2.53
2022-09-12T21:30:49.931Z,2.85
2022-09-12T21:33:19.211Z,2.83
2022-09-12T21:35:47.303Z,3.03
2022-09-12T21:38:18.477Z,2.95
2022-09-12T21:40:46.097Z,2.80
2022-09-12T21:43:13.638Z,2.65
2022-09-12T21:45:40.705Z,2.78
2022-09-12T21:48:07.695Z,3.40
2022-09-12T21:50:34.850Z,2.90
2022-09-12T21:53:01.518Z,2.38
2022-09-12T21:55:28.144Z,2.78
2022-09-12T21:57:55.399Z,2.97
2022-09-12T22:00:22.935Z,2.85
2022-09-12T22:02:49.870Z,2.80
2022-09-12T22:05:17.163Z,2.90
2022-09-12T22:07:44.009Z,2.55
2022-09-12T22:10:10.846Z,2.53
2022-09-12T22:12:37.517Z,2.47
2022-09-12T22:15:22.797Z,2.72
2022-09-12T22:17:49.855Z,3.03
2022-09-12T22:20:16.619Z,2.95
2022-09-12T22:23:01.804Z,2.63
2022-09-12T22:25:28.527Z,2.85
2022-09-12T22:27:55.172Z,2.83
2022-09-12T22:30:22.719Z,3.10
2022-09-12T22:32:51.424Z,3.03
2022-09-12T22:35:19.101Z,2.85
2022-09-12T22:37:47.706Z,3.38
2022-09-12T22:40:15.531Z,3.00
2022-09-12T22:42:42.649Z,2.90
2022-09-12T22:45:09.834Z,2.92
2022-09-12T22:47:36.610Z,2.65
2022-09-12T22:50:03.779Z,3.22
2022-09-12T22:52:30.442Z,3.55
2022-09-12T22:54:57.208Z,3.15
2022-09-12T22:57:23.865Z,2.88
2022-09-12T22:59:50.454Z,3.00
2022-09-12T23:02:17.065Z,3.45
2022-09-12T23:04:43.854Z,3.00
2022-09-12T23:07:10.652Z,3.10
2022-09-12T23:09:37.376Z,3.05
2022-09-12T23:12:04.422Z,3.13
2022-09-12T23:14:31.427Z,3.20
2022-09-12T23:16:58.103Z,3.35
2022-09-12T23:19:24.721Z,3.88
2022-09-12T23:21:51.358Z,3.40
2022-09-12T23:24:18.060Z,3.00
2022-09-12T23:26:44.651Z,3.38
2022-09-12T23:29:11.420Z,2.58
2022-09-12T23:31:38.165Z,2.92
2022-09-12T23:34:06.084Z,3.00
2022-09-12T23:36:33.623Z,3.88
2022-09-12T23:39:00.321Z,2.78
2022-09-12T23:41:27.111Z,3.25
2022-09-12T23:43:53.808Z,3.55
2022-09-12T23:46:21.917Z,3.40
2022-09-12T23:48:49.277Z,2.95
2022-09-12T23:51:16.499Z,3.20
2022-09-12T23:53:43.228Z,2.92
2022-09-12T23:56:10.015Z,3.17
2022-09-12T23:58:37.028Z,3.40
